WAJJ Airport Information

Runway Information
Runway 12 Length 9842 ft width 148 ft Elevation 292 ft Threshold N/A Heading 127
Runway 30 Length 9842 ft Width 148 ft Elevation 268 ft Threshold N/A Heading 307
Airport Frequencies
Type APP Name JAYAPURA A Frequency 119.1 MHZ
Type ATIS Name ATIS Frequency 128.8 MHZ
Type INFO Name JAYAPURA I Frequency 295.6 MHZ
Type TWR Name TWR Frequency 118.1 MHZ
Airport Navaids
Type VOR-DME Name Jayapura Frequency 116200 KHZ
Type NDB Name Jayapura Frequency 395 KHZ
Airport Weather Information & NOTAM
ADDS - METARS form results

(1532 UTC 27 November 2022)
Data provider http://aviationweather.gov/metar/data/
 
METAR text: WAJJ 271500Z 03002KT 9999 FEW013 26/22 Q1008 NOSIG
Conditions at: WAJJ (JAYAPURA/SENTANI, ID) observed 1500 UTC 27 November 2022
Temperature: 26.0°C (79°F)
Dewpoint: 22.0°C (72°F) [RH = 79%]
Pressure (altimeter): 29.76 inches Hg (1008.0 mb)
Winds: from the NNE (30 degrees) at 2 MPH (2 knots; 1.0 m/s)
Visibility: 6 or more miles (10+ km)
Ceiling: at least 12,000 feet AGL
Clouds: few clouds at 1300 feet AGL
Weather: no significant weather observed at this time